Time;durP1;ratioP1;P1;durP2;ratioP2;P2;SDS_P1;SDS_P2;PMS_P1;PMS_P2;Temp;Humidity;BMP_temperature;BMP_pressure;BME280_temperature;BME280_humidity;BME280_pressure;Samples;Min_cycle;Max_cycle;Signal;HPM_P1;HPM_P2
2023/04/27 00:00:35;;;;;;;12.40;7.35;;;5.70;99.90;;;;;;4994281;28;20461;-72
2023/04/27 00:03:04;;;;;;;13.77;7.57;;;5.60;99.90;;;;;;4994323;28;20026;-73
2023/04/27 00:05:33;;;;;;;12.60;7.50;;;5.60;99.90;;;;;;4994370;28;20014;-73
2023/04/27 00:07:58;;;;;;;13.20;7.32;;;5.60;99.90;;;;;;4993370;28;20088;-73
2023/04/27 00:10:24;;;;;;;12.00;7.00;;;5.60;99.90;;;;;;4994053;28;20030;-73
2023/04/27 00:12:49;;;;;;;12.40;6.57;;;5.60;99.90;;;;;;4976538;28;20042;-73
2023/04/27 00:15:15;;;;;;;12.48;7.15;;;5.50;99.90;;;;;;4983004;28;20022;-73
2023/04/27 00:17:42;;;;;;;12.70;7.65;;;5.50;99.90;;;;;;4982999;28;20474;-73
2023/04/27 00:20:10;;;;;;;13.27;7.32;;;5.50;99.90;;;;;;4993715;28;20461;-73
2023/04/27 00:22:37;;;;;;;12.85;7.75;;;5.40;99.90;;;;;;4993996;28;20034;-73
2023/04/27 00:25:03;;;;;;;13.10;6.88;;;5.40;99.90;;;;;;4993324;28;20034;-73
2023/04/27 00:27:28;;;;;;;13.48;7.63;;;5.40;99.90;;;;;;4992963;28;20068;-73
2023/04/27 00:29:54;;;;;;;15.90;7.88;;;5.40;99.90;;;;;;4993116;28;20361;-73
2023/04/27 00:32:19;;;;;;;11.65;7.60;;;5.40;99.90;;;;;;4992382;28;20034;-72
2023/04/27 00:34:45;;;;;;;15.93;7.90;;;5.30;99.90;;;;;;4993262;28;20027;-73
2023/04/27 00:37:10;;;;;;;13.73;7.40;;;5.30;99.90;;;;;;4992347;28;20153;-73
2023/04/27 00:39:36;;;;;;;14.82;7.78;;;5.30;99.90;;;;;;4981314;28;20034;-73
2023/04/27 00:42:02;;;;;;;13.35;7.45;;;5.30;99.90;;;;;;4992748;28;20023;-73
2023/04/27 00:44:27;;;;;;;17.63;8.13;;;5.30;99.90;;;;;;4992501;28;20031;-73
2023/04/27 00:46:54;;;;;;;12.63;7.13;;;5.20;99.90;;;;;;4993046;28;20588;-73
2023/04/27 00:49:20;;;;;;;12.85;7.63;;;5.20;99.90;;;;;;4993132;28;20057;-73
2023/04/27 00:51:47;;;;;;;17.17;8.52;;;5.20;99.90;;;;;;4991809;28;20050;-73
2023/04/27 00:54:18;;;;;;;14.13;8.27;;;5.20;99.90;;;;;;4993054;28;20101;-73
2023/04/27 00:56:47;;;;;;;13.40;7.88;;;5.10;99.90;;;;;;4992984;28;20133;-73
2023/04/27 00:59:12;;;;;;;16.80;9.20;;;5.10;99.90;;;;;;4975534;28;20030;-73
2023/04/27 01:01:38;;;;;;;13.68;7.43;;;5.10;99.90;;;;;;4992658;28;20354;-73
2023/04/27 01:04:04;;;;;;;14.95;8.05;;;5.10;99.90;;;;;;4992579;28;20025;-72
2023/04/27 01:06:30;;;;;;;15.48;8.15;;;5.00;99.90;;;;;;4992991;28;20030;-72
2023/04/27 01:08:56;;;;;;;17.85;8.23;;;5.00;99.90;;;;;;4992379;28;20064;-73
2023/04/27 01:11:22;;;;;;;16.17;7.75;;;5.00;99.90;;;;;;4992453;28;20473;-72
2023/04/27 01:13:48;;;;;;;16.08;8.30;;;5.00;99.90;;;;;;4992534;28;20022;-73
2023/04/27 01:16:16;;;;;;;16.27;9.60;;;5.00;99.90;;;;;;4992996;28;20026;-73
2023/04/27 01:18:43;;;;;;;15.77;8.60;;;5.00;99.90;;;;;;4992602;28;20608;-72
2023/04/27 01:21:09;;;;;;;16.00;8.73;;;4.90;99.90;;;;;;4992518;28;20457;-72
2023/04/27 01:23:35;;;;;;;15.68;8.25;;;4.90;99.90;;;;;;4992751;28;20105;-73
2023/04/27 01:26:00;;;;;;;15.32;8.82;;;4.90;99.90;;;;;;4992147;28;20425;-73
2023/04/27 01:28:26;;;;;;;16.40;8.15;;;4.90;99.90;;;;;;4982058;28;20382;-73
2023/04/27 01:30:52;;;;;;;21.40;8.63;;;4.80;99.90;;;;;;4989347;28;20454;-72
2023/04/27 01:33:17;;;;;;;12.68;8.23;;;4.80;99.90;;;;;;4983004;28;20050;-72
2023/04/27 01:35:43;;;;;;;15.25;8.55;;;4.80;99.90;;;;;;4974725;28;20030;-72
2023/04/27 01:38:09;;;;;;;15.30;8.82;;;4.80;99.90;;;;;;4992565;28;20040;-72
2023/04/27 01:40:34;;;;;;;13.70;8.13;;;4.80;99.90;;;;;;4992225;28;20026;-73
2023/04/27 01:43:00;;;;;;;14.88;8.85;;;4.70;99.90;;;;;;4992627;28;20061;-73
2023/04/27 01:45:25;;;;;;;15.23;8.13;;;4.70;99.90;;;;;;4991534;28;20026;-73
2023/04/27 01:47:51;;;;;;;19.10;9.68;;;4.70;99.90;;;;;;4989851;28;20030;-73
2023/04/27 01:50:17;;;;;;;15.90;8.85;;;4.70;99.90;;;;;;4991757;28;20393;-73
2023/04/27 01:52:43;;;;;;;17.58;9.35;;;4.70;99.90;;;;;;4992532;28;20062;-72
2023/04/27 01:55:08;;;;;;;17.60;9.32;;;4.60;99.90;;;;;;4991838;28;20561;-72
2023/04/27 01:57:34;;;;;;;17.92;9.95;;;4.70;99.90;;;;;;4991840;28;20659;-72
2023/04/27 02:00:00;;;;;;;24.27;9.25;;;4.60;99.90;;;;;;4991898;28;21116;-73
2023/04/27 02:02:25;;;;;;;14.50;8.98;;;4.60;99.90;;;;;;4990967;28;20014;-73
2023/04/27 02:04:51;;;;;;;19.35;9.25;;;4.60;99.90;;;;;;4991926;28;20037;-73
2023/04/27 02:07:16;;;;;;;16.00;9.00;;;4.60;99.90;;;;;;4983040;28;20421;-72
2023/04/27 02:09:42;;;;;;;16.58;9.43;;;4.60;99.90;;;;;;4987999;28;20496;-73
2023/04/27 02:12:08;;;;;;;14.07;8.90;;;4.60;99.90;;;;;;4991829;28;20062;-73
2023/04/27 02:14:33;;;;;;;20.05;9.30;;;4.60;99.90;;;;;;4991617;28;20042;-73
2023/04/27 02:16:59;;;;;;;19.50;10.07;;;4.50;99.90;;;;;;4991897;28;20026;-73
2023/04/27 02:19:25;;;;;;;18.75;9.75;;;4.50;99.90;;;;;;4991651;28;20067;-73
2023/04/27 02:21:51;;;;;;;15.57;9.45;;;4.50;99.90;;;;;;4991635;28;20097;-73
2023/04/27 02:24:17;;;;;;;21.45;9.82;;;4.50;99.90;;;;;;4991446;28;20362;-73
2023/04/27 02:26:43;;;;;;;21.27;9.52;;;4.50;99.90;;;;;;4991823;28;20105;-73
2023/04/27 02:29:08;;;;;;;17.73;9.85;;;4.60;99.90;;;;;;4991606;28;20642;-73
2023/04/27 02:31:34;;;;;;;17.60;9.35;;;4.60;99.90;;;;;;4989648;28;20030;-73
2023/04/27 02:33:59;;;;;;;20.00;9.82;;;4.60;99.90;;;;;;4967106;28;20023;-73
2023/04/27 02:36:26;;;;;;;15.90;9.02;;;4.60;99.90;;;;;;4987442;28;20069;-73
2023/04/27 02:38:52;;;;;;;17.23;8.75;;;4.60;99.90;;;;;;4991708;28;20435;-72
2023/04/27 02:41:18;;;;;;;15.85;8.82;;;4.60;99.90;;;;;;4991541;28;20034;-72
2023/04/27 02:43:43;;;;;;;15.07;9.30;;;4.60;99.90;;;;;;4991586;28;20054;-73
2023/04/27 02:46:09;;;;;;;17.58;8.77;;;4.60;99.90;;;;;;4969722;28;20034;-73
2023/04/27 02:48:34;;;;;;;15.88;8.55;;;4.60;99.90;;;;;;4991006;28;20026;-73
2023/04/27 02:51:03;;;;;;;14.50;8.23;;;4.60;99.90;;;;;;4991638;28;20030;-73
2023/04/27 02:53:28;;;;;;;17.15;8.50;;;4.60;99.90;;;;;;4990860;28;20466;-72
2023/04/27 02:55:54;;;;;;;17.65;9.18;;;4.60;99.90;;;;;;4991153;28;20093;-73
2023/04/27 02:58:20;;;;;;;17.05;8.30;;;4.60;99.90;;;;;;4988969;28;20358;-73
2023/04/27 03:00:45;;;;;;;18.95;8.93;;;4.60;99.90;;;;;;4991259;28;20026;-73
2023/04/27 03:03:11;;;;;;;21.73;8.20;;;4.60;99.90;;;;;;4991230;28;20081;-73
2023/04/27 03:05:37;;;;;;;15.77;8.80;;;4.60;99.90;;;;;;4990076;28;20469;-73
2023/04/27 03:08:03;;;;;;;14.70;8.30;;;4.60;99.90;;;;;;4979939;28;20046;-73
2023/04/27 03:10:28;;;;;;;15.15;8.30;;;4.60;99.90;;;;;;4991487;28;20046;-73
2023/04/27 03:12:54;;;;;;;14.65;7.88;;;4.60;99.90;;;;;;4989832;28;20104;-73
2023/04/27 03:15:20;;;;;;;13.23;8.07;;;4.50;99.90;;;;;;4969123;28;20030;-73
2023/04/27 03:17:45;;;;;;;14.18;8.10;;;4.50;99.90;;;;;;4990598;28;20050;-72
2023/04/27 03:20:11;;;;;;;12.10;8.07;;;4.50;99.90;;;;;;4987560;28;20462;-73
2023/04/27 03:22:37;;;;;;;13.85;8.10;;;4.50;99.90;;;;;;4990193;28;20030;-73
2023/04/27 03:25:03;;;;;;;14.27;8.40;;;4.50;99.90;;;;;;4995075;28;20488;-72
2023/04/27 03:27:29;;;;;;;12.57;7.80;;;4.50;99.90;;;;;;4995004;28;20026;-73
2023/04/27 03:29:55;;;;;;;13.93;7.80;;;4.50;99.90;;;;;;4994677;28;20018;-72
2023/04/27 03:32:20;;;;;;;15.40;7.95;;;4.50;99.90;;;;;;4994408;28;20038;-73
2023/04/27 03:34:46;;;;;;;13.40;7.50;;;4.50;99.90;;;;;;4994648;28;20047;-72
2023/04/27 03:37:12;;;;;;;14.98;8.23;;;4.50;99.90;;;;;;4994528;28;20760;-73
2023/04/27 03:39:38;;;;;;;16.15;8.43;;;4.50;99.90;;;;;;4994451;28;20054;-72
2023/04/27 03:42:04;;;;;;;14.65;7.68;;;4.50;99.90;;;;;;4994619;28;20097;-73
2023/04/27 03:44:32;;;;;;;14.27;7.43;;;4.50;99.90;;;;;;4994210;28;20024;-73
2023/04/27 03:46:58;;;;;;;15.73;7.40;;;4.50;99.90;;;;;;4994562;28;20023;-73
2023/04/27 03:49:23;;;;;;;13.00;7.88;;;4.50;99.90;;;;;;4983394;28;20019;-72
2023/04/27 03:51:49;;;;;;;18.10;7.97;;;4.50;99.90;;;;;;4994030;28;20354;-73
2023/04/27 03:54:15;;;;;;;12.68;7.78;;;4.50;99.90;;;;;;4994379;28;20449;-73
2023/04/27 03:56:41;;;;;;;14.48;7.82;;;4.50;99.90;;;;;;4993502;28;20050;-72
2023/04/27 03:59:06;;;;;;;14.90;8.02;;;4.50;99.90;;;;;;4994181;28;20097;-72
2023/04/27 04:01:33;;;;;;;14.23;7.68;;;4.50;99.90;;;;;;4994061;28;20460;-73
2023/04/27 04:03:58;;;;;;;15.55;8.50;;;4.50;99.90;;;;;;4994478;28;20018;-72
2023/04/27 04:06:24;;;;;;;15.57;7.72;;;4.40;99.90;;;;;;4993807;28;20023;-73
2023/04/27 04:08:50;;;;;;;16.83;7.88;;;4.50;99.90;;;;;;4994501;28;20069;-73
2023/04/27 04:11:16;;;;;;;18.83;8.13;;;4.50;99.90;;;;;;4976543;28;20496;-72
2023/04/27 04:13:41;;;;;;;14.75;8.00;;;4.40;99.90;;;;;;4994015;28;20082;-72
2023/04/27 04:16:08;;;;;;;14.90;8.15;;;4.40;99.90;;;;;;4993684;28;20030;-72
2023/04/27 04:18:35;;;;;;;16.35;8.27;;;4.40;99.90;;;;;;4993899;28;20037;-72
2023/04/27 04:21:00;;;;;;;17.63;8.02;;;4.40;99.90;;;;;;4993898;28;20377;-72
2023/04/27 04:23:26;;;;;;;18.30;7.50;;;4.40;99.90;;;;;;4993878;28;20022;-72
2023/04/27 04:25:53;;;;;;;16.13;8.27;;;4.40;99.90;;;;;;4975425;28;20134;-73
2023/04/27 04:28:19;;;;;;;17.60;8.60;;;4.40;99.90;;;;;;4993600;28;20022;-73
2023/04/27 04:30:44;;;;;;;14.38;8.25;;;4.30;99.90;;;;;;4972278;28;20139;-72
2023/04/27 04:33:10;;;;;;;16.63;8.13;;;4.30;99.90;;;;;;4992969;28;20061;-73
2023/04/27 04:35:42;;;;;;;15.30;8.02;;;4.30;99.90;;;;;;4994225;28;20058;-72
2023/04/27 04:38:08;;;;;;;16.85;8.80;;;4.30;99.90;;;;;;4977676;28;20078;-73
2023/04/27 04:40:35;;;;;;;15.88;8.13;;;4.30;99.90;;;;;;4991020;28;20105;-73
2023/04/27 04:43:00;;;;;;;14.15;7.90;;;4.30;99.90;;;;;;4993296;28;20018;-73
2023/04/27 04:45:27;;;;;;;16.20;8.15;;;4.30;99.90;;;;;;4993106;28;20105;-72
2023/04/27 04:47:54;;;;;;;14.98;8.32;;;4.30;99.90;;;;;;4993339;28;20466;-72
2023/04/27 04:50:19;;;;;;;16.65;7.82;;;4.20;99.90;;;;;;4993284;28;20019;-73
2023/04/27 04:52:45;;;;;;;15.05;7.75;;;4.30;99.90;;;;;;4993021;28;20378;-74
2023/04/27 04:55:11;;;;;;;19.35;9.07;;;4.30;99.90;;;;;;4991970;28;20024;-73
2023/04/27 04:57:36;;;;;;;15.93;7.65;;;4.30;99.90;;;;;;4992386;28;20500;-73
2023/04/27 05:00:05;;;;;;;18.58;8.02;;;4.30;99.90;;;;;;4992378;28;20026;-73
2023/04/27 05:02:31;;;;;;;19.98;8.15;;;4.30;99.90;;;;;;4990669;28;20101;-73
2023/04/27 05:04:57;;;;;;;18.02;8.02;;;4.30;99.90;;;;;;4992512;28;20105;-72
2023/04/27 05:07:22;;;;;;;14.82;8.45;;;4.30;99.90;;;;;;4992750;28;20030;-73
2023/04/27 05:09:48;;;;;;;17.45;7.93;;;4.40;99.90;;;;;;4993118;28;20027;-72
2023/04/27 05:12:13;;;;;;;14.60;8.43;;;4.40;99.90;;;;;;4992868;28;20054;-73
2023/04/27 05:14:39;;;;;;;16.75;8.15;;;4.40;99.90;;;;;;4971566;28;20591;-72
2023/04/27 05:17:04;;;;;;;14.32;7.72;;;4.40;99.90;;;;;;4992652;28;20402;-73
2023/04/27 05:19:30;;;;;;;19.45;9.00;;;4.40;99.90;;;;;;4992506;28;20018;-73
2023/04/27 05:21:57;;;;;;;18.23;8.02;;;4.40;99.90;;;;;;4992248;28;20030;-72
2023/04/27 05:24:24;;;;;;;13.18;7.90;;;4.40;99.90;;;;;;4992830;28;20381;-72
2023/04/27 05:26:49;;;;;;;14.18;8.15;;;4.40;99.90;;;;;;4993059;28;20023;-72
2023/04/27 05:29:15;;;;;;;15.52;8.57;;;4.50;99.90;;;;;;4992828;28;20516;-73
2023/04/27 05:31:40;;;;;;;17.98;8.48;;;4.50;99.90;;;;;;4993203;28;20023;-73
2023/04/27 05:34:08;;;;;;;17.80;8.55;;;4.60;99.90;;;;;;4992648;28;20021;-73
2023/04/27 05:36:34;;;;;;;17.20;8.30;;;4.60;99.90;;;;;;4992971;28;20057;-72
2023/04/27 05:39:01;;;;;;;17.80;8.43;;;4.60;99.90;;;;;;4990023;28;20026;-73
2023/04/27 05:41:26;;;;;;;16.38;8.43;;;4.70;99.90;;;;;;4992791;28;20041;-73
2023/04/27 05:43:52;;;;;;;17.85;8.65;;;4.70;99.90;;;;;;4992947;28;20027;-73
2023/04/27 05:46:19;;;;;;;14.43;8.05;;;4.70;99.90;;;;;;4992696;28;20019;-73
2023/04/27 05:48:45;;;;;;;15.82;8.85;;;4.80;99.90;;;;;;4992643;28;20026;-73
2023/04/27 05:51:11;;;;;;;16.05;8.40;;;4.80;99.90;;;;;;4992628;28;20022;-73
2023/04/27 05:53:37;;;;;;;16.17;8.45;;;4.80;99.90;;;;;;4992429;28;20030;-73
2023/04/27 05:56:05;;;;;;;16.95;8.77;;;4.90;99.90;;;;;;4985724;28;20054;-73
2023/04/27 05:58:31;;;;;;;16.92;9.10;;;4.90;99.90;;;;;;4974457;28;20029;-75
2023/04/27 06:00:57;;;;;;;20.00;9.13;;;4.90;99.90;;;;;;4992853;28;20439;-73
2023/04/27 06:03:23;;;;;;;18.80;9.20;;;4.90;99.90;;;;;;4992055;28;20101;-73
2023/04/27 06:05:54;;;;;;;15.45;9.48;;;5.00;99.90;;;;;;4992475;28;20027;-73
2023/04/27 06:08:20;;;;;;;16.65;9.10;;;5.00;99.90;;;;;;4992079;28;20019;-73
2023/04/27 06:10:46;;;;;;;14.50;8.73;;;5.00;99.90;;;;;;4999656;28;20025;-74
2023/04/27 06:13:11;;;;;;;13.55;8.38;;;5.10;99.90;;;;;;4992080;28;20065;-73
2023/04/27 06:15:37;;;;;;;15.32;8.15;;;5.10;99.90;;;;;;4992041;28;20077;-73
2023/04/27 06:18:03;;;;;;;13.43;7.73;;;5.10;99.90;;;;;;4992088;28;20019;-74
2023/04/27 06:20:28;;;;;;;14.07;7.50;;;5.20;99.90;;;;;;4981763;28;20398;-73
2023/04/27 06:22:54;;;;;;;14.57;7.53;;;5.30;99.90;;;;;;4990284;28;20018;-73
2023/04/27 06:25:19;;;;;;;14.13;7.72;;;5.40;99.90;;;;;;4991848;28;20461;-73
2023/04/27 06:27:46;;;;;;;16.52;7.22;;;5.40;99.90;;;;;;4980777;28;20023;-73
2023/04/27 06:30:12;;;;;;;14.05;6.88;;;5.50;99.90;;;;;;4992044;28;20026;-73
2023/04/27 06:32:37;;;;;;;15.77;7.35;;;5.50;99.90;;;;;;4990962;28;20579;-73
2023/04/27 06:35:03;;;;;;;12.27;6.50;;;5.60;99.90;;;;;;4991699;28;20031;-73
2023/04/27 06:37:29;;;;;;;12.88;6.65;;;5.70;99.90;;;;;;4991372;28;20042;-73
2023/04/27 06:39:55;;;;;;;13.52;7.00;;;5.80;99.90;;;;;;4991477;28;20421;-73
2023/04/27 06:42:20;;;;;;;13.77;6.63;;;5.80;99.90;;;;;;4991540;28;20041;-73
2023/04/27 06:44:46;;;;;;;14.07;7.03;;;5.90;99.90;;;;;;4988328;28;20049;-73
2023/04/27 06:47:12;;;;;;;14.73;7.22;;;5.90;99.90;;;;;;4991839;28;20130;-73
2023/04/27 06:49:38;;;;;;;12.02;6.55;;;6.00;99.90;;;;;;4993537;28;20022;-73
2023/04/27 06:52:04;;;;;;;13.73;5.97;;;6.10;99.90;;;;;;4995221;28;20112;-73
2023/04/27 06:54:30;;;;;;;10.32;5.68;;;6.20;99.90;;;;;;4995529;28;20034;-73
2023/04/27 06:56:55;;;;;;;11.02;5.65;;;6.30;99.90;;;;;;4995616;28;20046;-73
2023/04/27 06:59:21;;;;;;;12.52;5.68;;;6.30;99.90;;;;;;4977738;28;20104;-72
2023/04/27 07:01:46;;;;;;;13.02;5.63;;;6.40;99.90;;;;;;4995211;28;20037;-73
2023/04/27 07:04:12;;;;;;;12.07;5.63;;;6.50;99.90;;;;;;4995421;28;20168;-72
2023/04/27 07:06:38;;;;;;;9.45;5.38;;;6.60;99.90;;;;;;4995023;28;20110;-73
2023/04/27 07:09:06;;;;;;;9.43;4.68;;;6.60;99.90;;;;;;4994706;28;20113;-72
2023/04/27 07:11:31;;;;;;;7.68;4.95;;;6.70;99.90;;;;;;4994967;28;20080;-72
2023/04/27 07:13:57;;;;;;;8.73;4.75;;;6.80;99.90;;;;;;4995068;28;20026;-73
2023/04/27 07:16:23;;;;;;;7.53;4.78;;;6.90;99.90;;;;;;4994846;28;20104;-72
2023/04/27 07:18:48;;;;;;;8.93;4.80;;;7.00;99.90;;;;;;4992149;28;20026;-73
2023/04/27 07:21:14;;;;;;;11.20;4.70;;;7.10;99.90;;;;;;4994391;28;20026;-73
2023/04/27 07:23:40;;;;;;;12.23;4.28;;;7.20;99.90;;;;;;4994813;28;20027;-72
2023/04/27 07:26:06;;;;;;;10.88;4.45;;;7.40;99.90;;;;;;4994748;28;20105;-72
2023/04/27 07:28:34;;;;;;;11.18;4.40;;;7.50;99.90;;;;;;4985532;28;20034;-72
2023/04/27 07:31:00;;;;;;;8.23;4.18;;;7.60;99.90;;;;;;4994996;28;20014;-72
2023/04/27 07:33:26;;;;;;;8.10;4.35;;;7.70;99.90;;;;;;4992359;28;20085;-73
2023/04/27 07:35:53;;;;;;;8.57;4.20;;;7.90;99.90;;;;;;4990853;28;20027;-73
2023/04/27 07:38:19;;;;;;;6.75;4.18;;;8.00;99.90;;;;;;4990091;28;20370;-73
2023/04/27 07:40:45;;;;;;;8.88;4.22;;;8.10;99.90;;;;;;4994283;28;20018;-72
2023/04/27 07:43:11;;;;;;;6.95;3.83;;;8.30;99.90;;;;;;4977050;28;20050;-73
2023/04/27 07:45:38;;;;;;;12.32;4.70;;;8.40;99.90;;;;;;4993277;28;20374;-72
2023/04/27 07:48:04;;;;;;;14.18;4.47;;;8.50;99.90;;;;;;4991957;28;20425;-76
2023/04/27 07:50:31;;;;;;;8.50;4.20;;;8.70;99.90;;;;;;4982998;28;20050;-72
2023/04/27 07:52:57;;;;;;;11.13;4.25;;;8.90;99.90;;;;;;4988831;28;20026;-73
2023/04/27 07:55:23;;;;;;;9.80;4.15;;;9.00;99.90;;;;;;4991978;28;20042;-72
2023/04/27 07:57:53;;;;;;;8.35;3.97;;;9.10;99.90;;;;;;4993098;28;20065;-73
2023/04/27 08:00:19;;;;;;;11.30;3.72;;;9.20;99.90;;;;;;4984653;28;20058;-72
2023/04/27 08:02:45;;;;;;;8.25;3.80;;;9.30;99.90;;;;;;4989525;28;20524;-73
2023/04/27 08:05:10;;;;;;;6.90;3.80;;;9.40;99.90;;;;;;4989305;28;20018;-73
2023/04/27 08:07:36;;;;;;;6.50;3.65;;;9.50;99.90;;;;;;4987945;28;20102;-73
2023/04/27 08:10:02;;;;;;;6.85;3.30;;;9.70;99.90;;;;;;4991176;28;20357;-72
2023/04/27 08:12:27;;;;;;;9.57;3.63;;;9.90;99.90;;;;;;4990362;28;20489;-72
2023/04/27 08:14:53;;;;;;;5.43;3.50;;;10.00;99.90;;;;;;4992320;28;20049;-72
2023/04/27 08:17:20;;;;;;;5.40;3.60;;;10.10;99.90;;;;;;4988479;28;20049;-72
2023/04/27 08:19:46;;;;;;;5.55;3.40;;;10.10;99.90;;;;;;4991961;28;20117;-72
2023/04/27 08:22:12;;;;;;;7.18;3.03;;;10.20;99.90;;;;;;4985171;28;20467;-72
2023/04/27 08:24:38;;;;;;;7.03;3.40;;;10.40;99.90;;;;;;4985818;28;20033;-72
2023/04/27 08:27:05;;;;;;;6.25;2.95;;;10.50;99.90;;;;;;4983931;28;20022;-72
2023/04/27 08:29:31;;;;;;;9.35;3.40;;;10.60;99.90;;;;;;4991920;28;20030;-72
2023/04/27 08:31:58;;;;;;;22.55;3.20;;;10.70;99.90;;;;;;4986326;28;20478;-75
2023/04/27 08:34:24;;;;;;;11.30;3.33;;;10.80;99.90;;;;;;4974480;28;20031;-71
2023/04/27 08:36:50;;;;;;;10.82;3.20;;;10.90;99.90;;;;;;4985580;28;20385;-73
2023/04/27 08:39:16;;;;;;;15.68;3.40;;;10.90;99.90;;;;;;4980665;28;20026;-72
2023/04/27 08:41:43;;;;;;;11.27;2.90;;;10.90;99.90;;;;;;4986578;28;20032;-72
2023/04/27 08:44:09;;;;;;;5.50;2.55;;;11.00;99.90;;;;;;4993494;28;20022;-74
2023/04/27 08:46:36;;;;;;;7.32;2.75;;;11.10;99.90;;;;;;4993147;28;20054;-74
2023/04/27 08:49:03;;;;;;;7.32;2.63;;;11.30;99.90;;;;;;4993858;28;20121;-73
2023/04/27 08:51:31;;;;;;;6.28;3.13;;;11.50;99.90;;;;;;4992726;28;20026;-72
2023/04/27 08:53:58;;;;;;;5.97;3.50;;;11.60;99.90;;;;;;4991266;28;20049;-75
2023/04/27 08:56:26;;;;;;;6.38;2.75;;;11.80;99.90;;;;;;4993283;28;20129;-71
2023/04/27 08:58:53;;;;;;;5.65;2.90;;;11.90;99.90;;;;;;4974956;28;20415;-75
2023/04/27 09:01:19;;;;;;;8.18;3.03;;;12.00;99.90;;;;;;4992766;28;20121;-75
2023/04/27 09:03:48;;;;;;;17.85;3.47;;;12.00;99.90;;;;;;4992177;28;20072;-72
2023/04/27 09:06:14;;;;;;;6.35;3.05;;;12.10;99.90;;;;;;4992520;28;20031;-75
2023/04/27 09:08:44;;;;;;;9.80;3.33;;;12.20;99.90;;;;;;4992822;28;20044;-72
2023/04/27 09:11:10;;;;;;;13.18;3.50;;;12.30;99.90;;;;;;4991808;28;20034;-72
2023/04/27 09:13:41;;;;;;;18.55;3.72;;;12.30;99.90;;;;;;4993089;28;20061;-72
2023/04/27 09:16:06;;;;;;;5.18;3.03;;;12.40;99.90;;;;;;4992074;28;20141;-72
2023/04/27 09:18:36;;;;;;;18.33;3.95;;;12.40;99.90;;;;;;4992539;28;20440;-70
2023/04/27 09:21:05;;;;;;;19.23;3.85;;;12.50;99.90;;;;;;4988686;28;20077;-72
2023/04/27 09:23:35;;;;;;;12.50;3.72;;;12.60;99.90;;;;;;4992841;28;20033;-72
2023/04/27 09:26:20;;;;;;;30.98;4.55;;;12.70;99.90;;;;;;4993101;28;20728;-72
2023/04/27 09:28:49;;;;;;;9.75;3.53;;;12.90;99.90;;;;;;4993292;28;20470;-72
2023/04/27 09:31:15;;;;;;;8.05;3.33;;;13.00;99.60;;;;;;4993442;28;20501;-72
2023/04/27 09:33:42;;;;;;;5.47;3.50;;;13.20;98.70;;;;;;4994586;28;20100;-72
2023/04/27 09:36:08;;;;;;;8.60;3.60;;;13.20;97.90;;;;;;4993237;28;20104;-73
2023/04/27 09:38:33;;;;;;;8.85;3.80;;;13.20;96.90;;;;;;4992407;28;20037;-72
2023/04/27 09:41:00;;;;;;;10.57;3.83;;;13.20;96.80;;;;;;4993482;28;20026;-72
2023/04/27 09:43:28;;;;;;;9.68;4.00;;;13.30;96.50;;;;;;5001971;28;20045;-73
2023/04/27 09:45:55;;;;;;;8.30;3.80;;;13.30;96.40;;;;;;5001151;28;20345;-72
2023/04/27 09:48:22;;;;;;;5.97;3.63;;;13.30;95.80;;;;;;5003073;28;20065;-72
2023/04/27 09:50:50;;;;;;;8.20;3.97;;;13.30;95.80;;;;;;5005372;28;20078;-73
2023/04/27 09:53:21;;;;;;;10.07;4.05;;;13.30;95.60;;;;;;4989073;28;20034;-73
2023/04/27 09:55:59;;;;;;;8.82;4.30;;;13.40;95.70;;;;;;5006549;28;20061;-72
2023/04/27 09:58:56;;;;;;;11.00;4.50;;;13.60;95.30;;;;;;4987906;28;20130;-72
2023/04/27 10:01:43;;;;;;;6.85;4.47;;;13.70;95.40;;;;;;4994602;28;20550;-76
2023/04/27 10:04:38;;;;;;;8.43;4.68;;;13.80;94.70;;;;;;4990782;28;20061;-77
2023/04/27 10:07:07;;;;;;;20.75;5.38;;;13.90;95.00;;;;;;4988035;28;20033;-71
2023/04/27 10:09:36;;;;;;;45.38;5.97;;;14.00;95.00;;;;;;4993036;28;20030;-71
2023/04/27 10:12:20;;;;;;;37.83;6.38;;;14.00;94.70;;;;;;4989365;28;20049;-72
2023/04/27 10:14:59;;;;;;;155.50;10.80;;;14.10;94.20;;;;;;4992310;28;20019;-72
2023/04/27 10:17:30;;;;;;;62.97;7.05;;;14.10;93.30;;;;;;4990398;28;20109;-72
2023/04/27 10:20:03;;;;;;;69.35;7.57;;;14.10;93.70;;;;;;4992143;28;20157;-71
2023/04/27 10:22:48;;;;;;;55.10;7.80;;;14.20;92.90;;;;;;4967516;28;20026;-73
2023/04/27 10:25:21;;;;;;;26.58;5.35;;;14.30;92.40;;;;;;4989990;28;20030;-75
2023/04/27 10:27:53;;;;;;;10.15;4.72;;;14.40;91.30;;;;;;4992316;28;20157;-75
2023/04/27 10:30:21;;;;;;;56.80;7.75;;;14.40;90.90;;;;;;4970660;28;20034;-74
2023/04/27 10:32:57;;;;;;;7.43;4.40;;;14.40;90.80;;;;;;4985208;28;20622;-72
2023/04/27 10:35:39;;;;;;;8.85;4.68;;;14.40;90.20;;;;;;4984551;28;20030;-72
2023/04/27 10:38:16;;;;;;;9.98;4.72;;;14.60;90.50;;;;;;4988268;28;20046;-72
2023/04/27 10:40:56;;;;;;;8.13;4.75;;;14.70;90.40;;;;;;4989786;28;20618;-73
2023/04/27 10:43:26;;;;;;;9.88;4.72;;;14.80;90.00;;;;;;4989203;28;20461;-71
2023/04/27 10:45:52;;;;;;;9.00;4.85;;;14.80;89.70;;;;;;4983416;28;20031;-73
2023/04/27 10:48:18;;;;;;;9.07;4.95;;;14.80;88.30;;;;;;4990495;28;20019;-72
2023/04/27 10:50:45;;;;;;;11.05;5.00;;;14.70;87.80;;;;;;4987437;28;20048;-72
2023/04/27 10:53:13;;;;;;;7.65;4.90;;;14.70;88.40;;;;;;4990215;28;20026;-72
2023/04/27 10:55:39;;;;;;;11.15;5.25;;;14.80;87.50;;;;;;4984195;28;20074;-71
2023/04/27 10:58:05;;;;;;;7.82;4.88;;;14.80;86.70;;;;;;4990653;28;20473;-76
2023/04/27 11:00:37;;;;;;;9.85;5.05;;;14.80;86.10;;;;;;4992149;28;20039;-73
2023/04/27 11:03:21;;;;;;;9.60;5.35;;;14.90;86.50;;;;;;4992098;28;20060;-74
2023/04/27 11:05:49;;;;;;;7.38;5.32;;;14.90;85.80;;;;;;4990437;28;20089;-75
2023/04/27 11:08:16;;;;;;;10.95;5.63;;;14.90;86.80;;;;;;4987682;28;20504;-72
2023/04/27 11:10:49;;;;;;;9.63;5.13;;;14.90;86.70;;;;;;4991288;28;20077;-71
2023/04/27 11:13:18;;;;;;;9.15;5.20;;;15.00;85.00;;;;;;4991337;28;20022;-74
2023/04/27 11:15:50;;;;;;;10.65;5.25;;;15.10;85.40;;;;;;4990572;28;20023;-73
2023/04/27 11:18:17;;;;;;;8.50;5.22;;;15.20;85.40;;;;;;4988482;28;20026;-72
2023/04/27 11:20:48;;;;;;;8.60;5.28;;;15.40;85.20;;;;;;4983156;28;20025;-75
2023/04/27 11:23:24;;;;;;;10.35;5.63;;;15.50;84.60;;;;;;4990264;28;20030;-73
2023/04/27 11:25:51;;;;;;;26.85;9.98;;;15.60;83.90;;;;;;4972757;28;20474;-75
2023/04/27 11:28:18;;;;;;;17.92;7.20;;;15.70;85.70;;;;;;4990224;28;20026;-73
2023/04/27 11:30:43;;;;;;;10.13;5.40;;;15.90;83.30;;;;;;4990336;28;20097;-73
2023/04/27 11:33:10;;;;;;;12.40;5.15;;;16.00;81.60;;;;;;4989927;28;20019;-73
2023/04/27 11:35:35;;;;;;;10.25;5.20;;;16.00;80.40;;;;;;4992416;28;20023;-74
2023/04/27 11:38:01;;;;;;;9.75;5.72;;;16.00;76.30;;;;;;4965037;28;20212;-75
2023/04/27 11:40:28;;;;;;;22.88;7.38;;;15.90;75.60;;;;;;4983140;28;20115;-71
2023/04/27 11:43:02;;;;;;;47.25;14.13;;;15.90;76.30;;;;;;4992750;28;20172;-71
2023/04/27 11:45:28;;;;;;;14.48;6.70;;;16.00;77.90;;;;;;4993693;28;20048;-71
2023/04/27 11:47:56;;;;;;;41.90;15.02;;;16.00;77.60;;;;;;4993565;28;20453;-71
2023/04/27 11:50:26;;;;;;;16.48;8.38;;;16.10;76.30;;;;;;4993902;28;20035;-71
2023/04/27 11:52:52;;;;;;;48.92;14.70;;;16.00;74.40;;;;;;4989512;28;20038;-71
2023/04/27 11:55:21;;;;;;;21.15;7.32;;;16.00;75.20;;;;;;4992789;28;20014;-71
2023/04/27 11:57:47;;;;;;;102.70;30.77;;;16.00;74.90;;;;;;4993970;28;20037;-71
2023/04/27 12:00:14;;;;;;;8.27;5.75;;;16.10;76.00;;;;;;4993860;28;20022;-71
2023/04/27 12:02:43;;;;;;;60.00;22.45;;;16.10;75.70;;;;;;4994227;28;20026;-71
2023/04/27 12:05:09;;;;;;;64.38;20.80;;;16.10;76.40;;;;;;4993808;28;20069;-71
2023/04/27 12:07:35;;;;;;;60.90;21.52;;;16.10;76.10;;;;;;4993948;28;20026;-71
2023/04/27 12:10:00;;;;;;;53.28;19.02;;;16.20;77.90;;;;;;4994148;28;20026;-71
2023/04/27 12:12:26;;;;;;;9.52;5.43;;;16.10;77.70;;;;;;4993991;28;20118;-71
2023/04/27 12:14:52;;;;;;;10.65;6.00;;;16.10;75.60;;;;;;4994031;28;20122;-71
2023/04/27 12:17:18;;;;;;;12.30;6.28;;;16.00;75.80;;;;;;4994747;28;20536;-74
2023/04/27 12:19:44;;;;;;;8.85;6.20;;;16.00;75.40;;;;;;4994850;28;20030;-73
2023/04/27 12:22:10;;;;;;;11.77;5.90;;;16.00;76.20;;;;;;4994255;28;20026;-73
2023/04/27 12:24:36;;;;;;;15.80;6.40;;;16.10;76.50;;;;;;4993972;28;20130;-73
2023/04/27 12:27:03;;;;;;;9.20;6.40;;;16.10;75.60;;;;;;4993902;28;20143;-74
2023/04/27 12:29:30;;;;;;;10.45;6.40;;;16.10;74.70;;;;;;4994371;28;20026;-76
2023/04/27 12:31:58;;;;;;;9.10;6.40;;;16.10;74.40;;;;;;4994174;28;20661;-75
2023/04/27 12:34:23;;;;;;;8.32;6.35;;;16.10;74.10;;;;;;4993713;28;20049;-76
2023/04/27 12:36:49;;;;;;;9.30;5.45;;;16.10;72.20;;;;;;4993511;28;20054;-75
2023/04/27 12:39:19;;;;;;;8.18;5.50;;;16.20;72.90;;;;;;4989785;28;20027;-76
2023/04/27 12:41:46;;;;;;;17.92;6.30;;;16.20;73.20;;;;;;4993538;28;20022;-77
2023/04/27 12:44:13;;;;;;;11.57;6.10;;;16.20;71.60;;;;;;4977235;28;20030;-79